createdAt,value
2018-12-04T00:00:36.644Z,997.38
2018-12-04T00:01:36.644Z,997.36
2018-12-04T00:02:36.615Z,997.34
2018-12-04T00:03:36.608Z,997.37
2018-12-04T00:04:36.611Z,997.39
2018-12-04T00:05:36.586Z,997.36
2018-12-04T00:06:36.585Z,997.38
2018-12-04T00:07:36.560Z,997.39
2018-12-04T00:08:36.551Z,997.40
2018-12-04T00:09:36.539Z,997.42
2018-12-04T00:10:36.527Z,997.40
2018-12-04T00:11:36.540Z,997.48
2018-12-04T00:12:36.509Z,997.46
2018-12-04T00:13:36.494Z,997.51
2018-12-04T00:14:36.482Z,997.53
2018-12-04T00:15:36.473Z,997.57
2018-12-04T00:16:36.473Z,997.56
2018-12-04T00:17:36.462Z,997.57
2018-12-04T00:18:36.441Z,997.58
2018-12-04T00:19:36.426Z,997.55
2018-12-04T00:20:36.416Z,997.56
2018-12-04T00:21:36.407Z,997.62
2018-12-04T00:22:36.405Z,997.65
2018-12-04T00:23:36.383Z,997.65
2018-12-04T00:24:36.379Z,997.66
2018-12-04T00:25:36.359Z,997.65
2018-12-04T00:26:36.351Z,997.69
2018-12-04T00:27:36.350Z,997.71
2018-12-04T00:28:36.327Z,997.71
2018-12-04T00:29:36.318Z,997.67
2018-12-04T00:30:36.305Z,997.74
2018-12-04T00:31:36.294Z,997.78
2018-12-04T00:32:36.293Z,997.74
2018-12-04T00:33:36.275Z,997.74
2018-12-04T00:34:36.264Z,997.84
2018-12-04T00:35:36.254Z,997.84
2018-12-04T00:36:36.240Z,997.78
2018-12-04T00:37:36.236Z,997.80
2018-12-04T00:38:36.231Z,997.86
2018-12-04T00:39:36.204Z,997.84
2018-12-04T00:40:36.192Z,997.91
2018-12-04T00:41:36.181Z,997.85
2018-12-04T00:42:36.191Z,997.97
2018-12-04T00:43:36.160Z,997.97
2018-12-04T00:44:36.148Z,998.00
2018-12-04T00:45:36.138Z,998.00
2018-12-04T00:46:36.133Z,997.98
2018-12-04T00:47:36.132Z,997.97
2018-12-04T00:48:36.105Z,997.94
2018-12-04T00:49:36.098Z,997.95
2018-12-04T00:50:36.091Z,998.02
2018-12-04T00:51:36.073Z,998.01
2018-12-04T00:52:36.073Z,998.02
2018-12-04T00:53:36.053Z,998.10
2018-12-04T00:54:36.038Z,998.04
2018-12-04T00:55:36.026Z,998.08
2018-12-04T00:56:36.015Z,998.09
2018-12-04T00:57:36.020Z,998.06
2018-12-04T00:58:35.992Z,998.10
2018-12-04T00:59:35.989Z,998.14
2018-12-04T01:00:35.981Z,998.16
2018-12-04T01:01:35.961Z,998.16
2018-12-04T01:02:35.960Z,998.20
2018-12-04T01:03:35.942Z,998.23
2018-12-04T01:04:35.927Z,998.24
2018-12-04T01:05:35.914Z,998.23
2018-12-04T01:06:35.942Z,998.22
2018-12-04T01:07:35.926Z,998.32
2018-12-04T01:08:35.891Z,998.37
2018-12-04T01:09:35.875Z,998.40
2018-12-04T01:10:35.865Z,998.43
2018-12-04T01:11:35.850Z,998.41
2018-12-04T01:12:35.857Z,998.44
2018-12-04T01:13:35.835Z,998.47
2018-12-04T01:14:35.816Z,998.44
2018-12-04T01:15:35.812Z,998.47
2018-12-04T01:16:35.800Z,998.48
2018-12-04T01:17:35.806Z,998.47
2018-12-04T01:18:35.780Z,998.54
2018-12-04T01:19:35.766Z,998.57
2018-12-04T01:20:35.748Z,998.56
2018-12-04T01:21:35.744Z,998.56
2018-12-04T01:22:35.727Z,998.61
2018-12-04T01:23:35.729Z,998.58
2018-12-04T01:24:35.709Z,998.64
2018-12-04T01:25:35.694Z,998.67
2018-12-04T01:26:35.683Z,998.72
2018-12-04T01:27:35.677Z,998.61
2018-12-04T01:28:35.677Z,998.68
2018-12-04T01:29:35.660Z,998.65
2018-12-04T01:30:35.637Z,998.69
2018-12-04T01:31:35.633Z,998.71
2018-12-04T01:32:35.616Z,998.72
2018-12-04T01:33:35.617Z,998.68
2018-12-04T01:34:35.594Z,998.69
2018-12-04T01:35:35.589Z,998.70
2018-12-04T01:36:35.572Z,998.65
2018-12-04T01:37:35.560Z,998.73
2018-12-04T01:38:35.561Z,998.79
2018-12-04T01:39:35.542Z,998.78
2018-12-04T01:40:35.529Z,998.76
2018-12-04T01:41:35.521Z,998.75
2018-12-04T01:42:35.505Z,998.77
2018-12-04T01:43:35.506Z,998.78
2018-12-04T01:44:35.482Z,998.87
2018-12-04T01:45:35.470Z,998.83
2018-12-04T01:46:35.459Z,998.84
2018-12-04T01:47:35.452Z,998.83
2018-12-04T01:48:35.459Z,998.86
2018-12-04T01:49:35.430Z,998.88
2018-12-04T01:50:35.414Z,998.85
2018-12-04T01:51:35.403Z,998.89
2018-12-04T01:52:35.393Z,998.93
2018-12-04T01:53:35.385Z,998.96
2018-12-04T01:54:35.380Z,998.87
2018-12-04T01:55:35.361Z,998.99
2018-12-04T01:56:35.349Z,998.99
2018-12-04T01:57:35.344Z,998.97
2018-12-04T01:58:35.327Z,998.96
2018-12-04T01:59:35.330Z,999.00
2018-12-04T02:00:35.312Z,998.94
2018-12-04T02:01:35.294Z,998.97
2018-12-04T02:02:35.292Z,999.00
2018-12-04T02:03:35.273Z,999.04
2018-12-04T02:04:35.271Z,999.03
2018-12-04T02:05:35.250Z,999.05
2018-12-04T02:06:35.240Z,999.04
2018-12-04T02:07:35.228Z,999.04
2018-12-04T02:08:35.223Z,999.02
2018-12-04T02:09:35.224Z,999.09
2018-12-04T02:10:35.196Z,999.04
2018-12-04T02:11:35.182Z,999.06
2018-12-04T02:12:35.178Z,999.10
2018-12-04T02:13:35.160Z,999.06
2018-12-04T02:14:35.160Z,999.12
2018-12-04T02:15:35.137Z,999.08
2018-12-04T02:16:35.131Z,999.02
2018-12-04T02:17:35.126Z,999.06
2018-12-04T02:18:35.104Z,999.10
2018-12-04T02:19:35.103Z,999.07
2018-12-04T02:20:35.082Z,999.05
2018-12-04T02:21:35.072Z,999.10
2018-12-04T02:22:35.079Z,999.13
2018-12-04T02:23:35.051Z,999.10
2018-12-04T02:24:35.048Z,999.23
2018-12-04T02:25:35.027Z,999.26
2018-12-04T02:26:35.015Z,999.19
2018-12-04T02:27:35.007Z,999.26
2018-12-04T02:28:34.997Z,999.29
2018-12-04T02:29:35.016Z,999.24
2018-12-04T02:30:34.969Z,999.30
2018-12-04T02:31:34.960Z,999.28
2018-12-04T02:32:34.947Z,999.32
2018-12-04T02:33:34.937Z,999.30
2018-12-04T02:34:34.926Z,999.34
2018-12-04T02:35:34.950Z,999.34
2018-12-04T02:36:34.904Z,999.34
2018-12-04T02:37:34.892Z,999.39
2018-12-04T02:38:34.891Z,999.36
2018-12-04T02:39:34.885Z,999.34
2018-12-04T02:40:34.887Z,999.34
2018-12-04T02:41:34.849Z,999.36
2018-12-04T02:42:34.839Z,999.37
2018-12-04T02:43:34.826Z,999.36
2018-12-04T02:44:34.822Z,999.40
2018-12-04T02:45:34.817Z,999.39
2018-12-04T02:46:34.814Z,999.37
2018-12-04T02:47:34.783Z,999.37
2018-12-04T02:48:34.770Z,999.41
2018-12-04T02:49:34.762Z,999.44
2018-12-04T02:50:34.767Z,999.46
2018-12-04T02:51:34.746Z,999.45
2018-12-04T02:52:34.726Z,999.46
2018-12-04T02:53:34.722Z,999.51
2018-12-04T02:54:34.707Z,999.51
2018-12-04T02:55:34.705Z,999.55
2018-12-04T02:56:34.681Z,999.55
2018-12-04T02:57:34.677Z,999.62
2018-12-04T02:58:34.659Z,999.65
2018-12-04T02:59:34.650Z,999.66
2018-12-04T03:00:34.649Z,999.69
2018-12-04T03:01:34.640Z,999.72
2018-12-04T03:02:34.614Z,999.74
2018-12-04T03:03:34.615Z,999.75
2018-12-04T03:04:34.595Z,999.67
2018-12-04T03:05:34.593Z,999.71
2018-12-04T03:06:34.571Z,999.74
2018-12-04T03:07:34.561Z,999.74
2018-12-04T03:08:34.552Z,999.81
2018-12-04T03:09:34.537Z,999.75
2018-12-04T03:10:34.538Z,999.77
2018-12-04T03:11:34.523Z,999.75
2018-12-04T03:12:34.509Z,999.80
2018-12-04T03:13:34.504Z,999.76
2018-12-04T03:14:34.491Z,999.82
2018-12-04T03:15:34.493Z,999.83
2018-12-04T03:16:34.463Z,999.86
2018-12-04T03:17:34.461Z,999.90
2018-12-04T03:18:34.438Z,999.89
2018-12-04T03:19:34.428Z,999.90
2018-12-04T03:20:34.477Z,999.93
2018-12-04T03:21:34.418Z,999.90
2018-12-04T03:22:34.396Z,999.97
2018-12-04T03:23:34.389Z,999.99
2018-12-04T03:24:34.372Z,999.99
2018-12-04T03:25:34.366Z,1000.00
2018-12-04T03:26:34.362Z,1000.01
2018-12-04T03:27:34.340Z,1000.01
2018-12-04T03:28:34.328Z,1000.01
2018-12-04T03:29:34.325Z,1000.05
2018-12-04T03:30:34.309Z,1000.01
2018-12-04T03:31:34.308Z,1000.05
2018-12-04T03:32:34.333Z,1000.07
2018-12-04T03:33:34.279Z,1000.11
2018-12-04T03:34:34.268Z,1000.11
2018-12-04T03:35:34.254Z,1000.11
2018-12-04T03:36:34.250Z,1000.19
2018-12-04T03:37:34.232Z,1000.15
2018-12-04T03:38:34.218Z,1000.16
2018-12-04T03:39:34.210Z,1000.24
2018-12-04T03:40:34.199Z,1000.26
2018-12-04T03:41:34.194Z,1000.24
2018-12-04T03:42:34.173Z,1000.26
2018-12-04T03:43:34.170Z,1000.31
2018-12-04T03:44:34.153Z,1000.30
2018-12-04T03:45:34.139Z,1000.33
2018-12-04T03:46:34.143Z,1000.38
2018-12-04T03:47:34.145Z,1000.39
2018-12-04T03:48:34.113Z,1000.42
2018-12-04T03:49:34.096Z,1000.48
2018-12-04T03:50:34.092Z,1000.49
2018-12-04T03:51:34.096Z,1000.47
2018-12-04T03:52:34.067Z,1000.47
2018-12-04T03:53:34.051Z,1000.49
2018-12-04T03:54:34.040Z,1000.48
2018-12-04T03:55:34.458Z,1000.52
2018-12-04T03:56:34.036Z,1000.51
2018-12-04T03:57:34.009Z,1000.55
2018-12-04T03:58:33.994Z,1000.60
2018-12-04T03:59:33.984Z,1000.62
2018-12-04T04:00:33.977Z,1000.67
2018-12-04T04:01:33.980Z,1000.71
2018-12-04T04:02:33.953Z,1000.70
2018-12-04T04:03:33.944Z,1000.71
2018-12-04T04:04:33.935Z,1000.71
2018-12-04T04:05:33.921Z,1000.70
2018-12-04T04:06:33.922Z,1000.71
2018-12-04T04:07:33.895Z,1000.73
2018-12-04T04:08:33.888Z,1000.73
2018-12-04T04:09:33.875Z,1000.71
2018-12-04T04:10:33.864Z,1000.69
2018-12-04T04:11:33.864Z,1000.68
2018-12-04T04:12:33.856Z,1000.75
2018-12-04T04:13:33.832Z,1000.69
2018-12-04T04:14:33.822Z,1000.76
2018-12-04T04:15:33.811Z,1000.73
2018-12-04T04:16:33.820Z,1000.78
2018-12-04T04:17:33.783Z,1000.80
2018-12-04T04:18:33.780Z,1000.82
2018-12-04T04:19:33.763Z,1000.79
2018-12-04T04:20:33.752Z,1000.80
2018-12-04T04:21:33.753Z,1000.85
2018-12-04T04:22:33.740Z,1000.79
2018-12-04T04:23:33.720Z,1000.89
2018-12-04T04:24:33.721Z,1000.87
2018-12-04T04:25:33.706Z,1000.95
2018-12-04T04:26:33.684Z,1000.94
2018-12-04T04:27:33.686Z,1000.91
2018-12-04T04:28:33.662Z,1000.96
2018-12-04T04:29:33.653Z,1001.00
2018-12-04T04:30:33.641Z,1001.05
2018-12-04T04:31:33.638Z,1001.11
2018-12-04T04:32:33.627Z,1001.10
2018-12-04T04:33:33.609Z,1001.18
2018-12-04T04:34:33.602Z,1001.22
2018-12-04T04:35:33.585Z,1001.25
2018-12-04T04:36:33.576Z,1001.28
2018-12-04T04:37:33.573Z,1001.29
2018-12-04T04:38:33.559Z,1001.27
2018-12-04T04:39:33.541Z,1001.30
2018-12-04T04:40:33.535Z,1001.26
2018-12-04T04:41:33.536Z,1001.31
2018-12-04T04:42:33.523Z,1001.35
2018-12-04T04:43:33.504Z,1001.36
2018-12-04T04:44:33.483Z,1001.43
2018-12-04T04:45:33.473Z,1001.45
2018-12-04T04:46:33.468Z,1001.42
2018-12-04T04:47:33.461Z,1001.45
2018-12-04T04:48:33.438Z,1001.47
2018-12-04T04:49:33.427Z,1001.50
2018-12-04T04:50:33.419Z,1001.54
2018-12-04T04:51:33.406Z,1001.52
2018-12-04T04:52:33.406Z,1001.65
2018-12-04T04:53:33.400Z,1001.67
2018-12-04T04:54:33.382Z,1001.63
2018-12-04T04:55:33.363Z,1001.73
2018-12-04T04:56:33.352Z,1001.70
2018-12-04T04:57:33.363Z,1001.73
2018-12-04T04:58:33.328Z,1001.79
2018-12-04T04:59:33.321Z,1001.80
2018-12-04T05:00:33.311Z,1001.82
2018-12-04T05:01:33.326Z,1001.79
2018-12-04T05:02:33.287Z,1001.76
2018-12-04T05:03:33.282Z,1001.84
2018-12-04T05:04:33.261Z,1001.83
2018-12-04T05:05:33.276Z,1001.83
2018-12-04T05:06:33.249Z,1001.85
2018-12-04T05:07:33.250Z,1001.84
2018-12-04T05:08:33.226Z,1001.86
2018-12-04T05:09:33.208Z,1001.87
2018-12-04T05:10:33.195Z,1001.88
2018-12-04T05:11:33.191Z,1001.90
2018-12-04T05:12:33.181Z,1001.91
2018-12-04T05:13:33.172Z,1001.94
2018-12-04T05:14:33.151Z,1001.94
2018-12-04T05:15:33.141Z,1001.98
2018-12-04T05:16:33.128Z,1001.99
2018-12-04T05:17:33.121Z,1002.00
2018-12-04T05:18:33.117Z,1002.07
2018-12-04T05:19:33.097Z,1002.08
2018-12-04T05:20:33.088Z,1002.05
2018-12-04T05:21:33.074Z,1002.07
2018-12-04T05:22:33.151Z,1002.08
2018-12-04T05:23:33.064Z,1002.11
2018-12-04T05:24:33.050Z,1002.10
2018-12-04T05:25:33.027Z,1002.11
2018-12-04T05:26:33.018Z,1002.18
2018-12-04T05:27:33.016Z,1002.17
2018-12-04T05:28:33.007Z,1002.21
2018-12-04T05:29:32.984Z,1002.28
2018-12-04T05:30:32.972Z,1002.28
2018-12-04T05:31:32.962Z,1002.19
2018-12-04T05:32:32.951Z,1002.18
2018-12-04T05:33:32.954Z,1002.17
2018-12-04T05:34:32.928Z,1002.14
2018-12-04T05:35:32.918Z,1002.17
2018-12-04T05:36:32.917Z,1002.19
2018-12-04T05:37:32.897Z,1002.21
2018-12-04T05:38:32.893Z,1002.23
2018-12-04T05:39:32.877Z,1002.29
2018-12-04T05:40:32.861Z,1002.30
2018-12-04T05:41:32.849Z,1002.32
2018-12-04T05:42:32.839Z,1002.32
2018-12-04T05:43:32.866Z,1002.36
2018-12-04T05:44:32.821Z,1002.38
2018-12-04T05:45:32.806Z,1002.43
2018-12-04T05:46:32.798Z,1002.50
2018-12-04T05:47:32.787Z,1002.47
2018-12-04T05:48:32.792Z,1002.53
2018-12-04T05:49:32.764Z,1002.55
2018-12-04T05:50:32.752Z,1002.51
2018-12-04T05:51:32.741Z,1002.51
2018-12-04T05:52:32.732Z,1002.48
2018-12-04T05:53:32.724Z,1002.48
2018-12-04T05:54:32.705Z,1002.52
2018-12-04T05:55:32.698Z,1002.55
2018-12-04T05:56:32.686Z,1002.57
2018-12-04T05:57:32.672Z,1002.56
2018-12-04T05:58:32.677Z,1002.53
2018-12-04T05:59:32.663Z,1002.55
2018-12-04T06:00:32.642Z,1002.54
2018-12-04T06:01:32.627Z,1002.55
2018-12-04T06:02:32.617Z,1002.57
2018-12-04T06:03:32.626Z,1002.59
2018-12-04T06:04:32.596Z,1002.58
2018-12-04T06:05:32.582Z,1002.55
2018-12-04T06:06:32.571Z,1002.62
2018-12-04T06:07:32.562Z,1002.61
2018-12-04T06:08:32.549Z,1002.66
2018-12-04T06:09:32.547Z,1002.74
2018-12-04T06:10:32.530Z,1002.73
2018-12-04T06:11:32.518Z,1002.73
2018-12-04T06:12:32.504Z,1002.73
2018-12-04T06:13:32.495Z,1002.71
2018-12-04T06:14:32.492Z,1002.72
2018-12-04T06:15:32.469Z,1002.77
2018-12-04T06:16:32.459Z,1002.84
2018-12-04T06:17:32.448Z,1002.90
2018-12-04T06:18:32.436Z,1002.89
2018-12-04T06:19:32.441Z,1002.90
2018-12-04T06:20:32.415Z,1002.92
2018-12-04T06:21:32.404Z,1002.97
2018-12-04T06:22:32.407Z,1003.03
2018-12-04T06:23:32.382Z,1003.05
2018-12-04T06:24:32.380Z,1003.08
2018-12-04T06:25:32.362Z,1003.08
2018-12-04T06:26:32.348Z,1003.14
2018-12-04T06:27:32.354Z,1003.15
2018-12-04T06:28:32.426Z,1003.22
2018-12-04T06:29:32.324Z,1003.22
2018-12-04T06:30:32.308Z,1003.25
2018-12-04T06:31:32.300Z,1003.30
2018-12-04T06:32:32.283Z,1003.36
2018-12-04T06:33:32.272Z,1003.42
2018-12-04T06:34:32.270Z,1003.44
2018-12-04T06:35:32.252Z,1003.52
2018-12-04T06:36:32.238Z,1003.58
2018-12-04T06:37:32.227Z,1003.59
2018-12-04T06:38:32.218Z,1003.59
2018-12-04T06:39:32.215Z,1003.65
2018-12-04T06:40:32.203Z,1003.59
2018-12-04T06:41:32.182Z,1003.63
2018-12-04T06:42:32.176Z,1003.67
2018-12-04T06:43:32.158Z,1003.72
2018-12-04T06:44:32.159Z,1003.74
2018-12-04T06:45:32.142Z,1003.80
2018-12-04T06:46:32.137Z,1003.89
2018-12-04T06:47:32.112Z,1003.90
2018-12-04T06:48:32.104Z,1003.84
2018-12-04T06:49:32.103Z,1003.95
2018-12-04T06:50:32.081Z,1003.95
2018-12-04T06:51:32.079Z,1003.98
2018-12-04T06:52:32.057Z,1004.03
2018-12-04T06:53:32.048Z,1004.03
2018-12-04T06:54:32.049Z,1004.12
2018-12-04T06:55:32.071Z,1004.12
2018-12-04T06:56:32.015Z,1004.22
2018-12-04T06:57:32.019Z,1004.24
2018-12-04T06:58:32.003Z,1004.26
2018-12-04T06:59:31.990Z,1004.30
2018-12-04T07:00:31.987Z,1004.37
2018-12-04T07:01:31.974Z,1004.39
2018-12-04T07:02:31.965Z,1004.43
2018-12-04T07:03:31.941Z,1004.49
2018-12-04T07:04:31.938Z,1004.50
2018-12-04T07:05:32.062Z,1004.53
2018-12-04T07:06:31.902Z,1004.56
2018-12-04T07:07:31.895Z,1004.55
2018-12-04T07:08:31.889Z,1004.55
2018-12-04T07:09:31.889Z,1004.55
2018-12-04T07:10:31.856Z,1004.64
2018-12-04T07:11:31.848Z,1004.65
2018-12-04T07:12:31.834Z,1004.60
2018-12-04T07:13:31.821Z,1004.62
2018-12-04T07:14:31.830Z,1004.62
2018-12-04T07:15:31.801Z,1004.66
2018-12-04T07:16:31.788Z,1004.67
2018-12-04T07:17:31.778Z,1004.65
2018-12-04T07:18:31.769Z,1004.64
2018-12-04T07:19:31.788Z,1004.59
2018-12-04T07:20:31.744Z,1004.67
2018-12-04T07:21:31.734Z,1004.69
2018-12-04T07:22:31.721Z,1004.66
2018-12-04T07:23:31.712Z,1004.70
2018-12-04T07:24:31.720Z,1004.71
2018-12-04T07:25:31.691Z,1004.73
2018-12-04T07:26:31.685Z,1004.73
2018-12-04T07:27:31.668Z,1004.77
2018-12-04T07:28:31.656Z,1004.85
2018-12-04T07:29:31.660Z,1004.90
2018-12-04T07:30:31.633Z,1004.88
2018-12-04T07:31:31.622Z,1004.87
2018-12-04T07:32:31.613Z,1004.92
2018-12-04T07:33:31.598Z,1004.92
2018-12-04T07:34:31.605Z,1004.95
2018-12-04T07:35:31.605Z,1004.98
2018-12-04T07:36:31.595Z,1004.98
2018-12-04T07:37:31.586Z,1004.97
2018-12-04T07:38:31.545Z,1005.05
2018-12-04T07:39:31.556Z,1005.09
2018-12-04T07:40:31.518Z,1005.11
2018-12-04T07:41:31.509Z,1005.20
2018-12-04T07:42:31.499Z,1005.21
2018-12-04T07:43:31.487Z,1005.21
2018-12-04T07:44:31.489Z,1005.27
2018-12-04T07:45:31.483Z,1005.28
2018-12-04T07:46:31.455Z,1005.35
2018-12-04T07:49:04.405Z,1005.43
2018-12-04T07:49:40.175Z,1005.43
2018-12-04T07:50:40.144Z,1005.45
2018-12-04T07:51:40.132Z,1005.48
2018-12-04T07:52:40.122Z,1005.50
2018-12-04T07:54:49.596Z,1005.50
2018-12-04T07:55:48.839Z,1005.54
2018-12-04T07:56:48.824Z,1005.57
2018-12-04T07:57:48.813Z,1005.56
2018-12-04T07:58:48.803Z,1005.62
2018-12-04T07:59:48.800Z,1005.68
2018-12-04T08:00:48.780Z,1005.65
2018-12-04T08:01:48.769Z,1005.71
2018-12-04T08:02:48.757Z,1005.72
2018-12-04T08:03:48.746Z,1005.72
2018-12-04T08:04:48.743Z,1005.70
2018-12-04T08:05:48.723Z,1005.73
2018-12-04T08:06:48.715Z,1005.71
2018-12-04T08:07:48.704Z,1005.72
2018-12-04T08:08:48.690Z,1005.76
2018-12-04T08:09:48.690Z,1005.76
2018-12-04T08:10:48.667Z,1005.78
2018-12-04T08:11:48.656Z,1005.80
2018-12-04T08:12:48.644Z,1005.78
2018-12-04T08:13:48.635Z,1005.84
2018-12-04T08:14:48.623Z,1005.86
2018-12-04T08:15:48.623Z,1005.92
2018-12-04T08:16:48.598Z,1005.88
2018-12-04T08:17:48.587Z,1005.98
2018-12-04T08:18:48.575Z,1006.01
2018-12-04T08:19:48.563Z,1006.06
2018-12-04T08:20:48.563Z,1006.10
2018-12-04T08:21:48.556Z,1006.12
2018-12-04T08:22:48.532Z,1006.21
2018-12-04T08:23:48.526Z,1006.23
2018-12-04T08:24:48.513Z,1006.22
2018-12-04T08:25:48.508Z,1006.21
2018-12-04T08:26:48.485Z,1006.26
2018-12-04T08:27:48.471Z,1006.25
2018-12-04T08:28:48.460Z,1006.27
2018-12-04T08:29:48.453Z,1006.33
2018-12-04T08:30:48.452Z,1006.34
2018-12-04T08:31:48.429Z,1006.34
2018-12-04T08:32:48.415Z,1006.36
2018-12-04T08:33:48.421Z,1006.35
2018-12-04T08:34:48.431Z,1006.42
2018-12-04T08:35:48.398Z,1006.40
2018-12-04T08:36:48.370Z,1006.49
2018-12-04T08:37:48.361Z,1006.51
2018-12-04T08:38:48.355Z,1006.57
2018-12-04T08:39:48.337Z,1006.63
2018-12-04T08:40:48.339Z,1006.63
2018-12-04T08:41:48.322Z,1006.65
2018-12-04T08:42:48.302Z,1006.65
2018-12-04T08:43:48.291Z,1006.68
2018-12-04T08:44:48.278Z,1006.66
2018-12-04T08:45:48.302Z,1006.72
2018-12-04T08:46:48.269Z,1006.70
2018-12-04T08:47:48.248Z,1006.73
2018-12-04T08:48:48.243Z,1006.74
2018-12-04T08:49:48.227Z,1006.78
2018-12-04T08:50:48.226Z,1006.80
2018-12-04T08:51:48.203Z,1006.77
2018-12-04T08:52:48.190Z,1006.84
2018-12-04T08:53:48.178Z,1006.84
2018-12-04T08:54:48.168Z,1006.87
2018-12-04T08:55:48.172Z,1006.89
2018-12-04T08:56:48.143Z,1006.94
2018-12-04T08:57:48.131Z,1006.93
2018-12-04T08:58:48.123Z,1006.94
2018-12-04T08:59:48.108Z,1007.04
2018-12-04T09:00:48.107Z,1007.04
2018-12-04T09:01:48.094Z,1007.05
2018-12-04T09:02:48.072Z,1007.09
2018-12-04T09:03:48.061Z,1007.13
2018-12-04T09:04:48.051Z,1007.14
2018-12-04T09:05:48.052Z,1007.11
2018-12-04T09:06:48.118Z,1007.14
2018-12-04T09:07:48.016Z,1007.13
2018-12-04T09:08:48.059Z,1007.12
2018-12-04T09:09:47.995Z,1007.11
2018-12-04T09:10:47.998Z,1007.17
2018-12-04T09:11:47.975Z,1007.21
2018-12-04T09:12:47.963Z,1007.22
2018-12-04T09:13:47.948Z,1007.23
2018-12-04T09:14:47.941Z,1007.30
2018-12-04T09:15:47.941Z,1007.32
2018-12-04T09:16:47.919Z,1007.37
2018-12-04T09:17:47.904Z,1007.33
2018-12-04T09:18:47.978Z,1007.34
2018-12-04T09:19:48.011Z,1007.38
2018-12-04T09:20:47.920Z,1007.39
2018-12-04T09:21:47.885Z,1007.42
2018-12-04T09:22:47.867Z,1007.46
2018-12-04T09:23:47.926Z,1007.47
2018-12-04T09:24:47.828Z,1007.52
2018-12-04T09:25:47.881Z,1007.56
2018-12-04T09:26:47.806Z,1007.56
2018-12-04T09:27:47.820Z,1007.54
2018-12-04T09:28:47.781Z,1007.56
2018-12-04T09:29:47.803Z,1007.58
2018-12-04T09:30:47.777Z,1007.70
2018-12-04T09:31:47.744Z,1007.68
2018-12-04T09:32:47.732Z,1007.73
2018-12-04T09:33:47.734Z,1007.71
2018-12-04T09:34:47.709Z,1007.77
2018-12-04T09:35:47.717Z,1007.78
2018-12-04T09:36:47.686Z,1007.85
2018-12-04T09:37:47.677Z,1007.83
2018-12-04T09:38:47.662Z,1007.85
2018-12-04T09:39:47.656Z,1007.83
2018-12-04T09:40:47.653Z,1007.85
2018-12-04T09:41:47.635Z,1007.85
2018-12-04T09:42:47.616Z,1007.86
2018-12-04T09:43:47.654Z,1007.89
2018-12-04T09:44:47.596Z,1007.94
2018-12-04T09:45:47.599Z,1007.89
2018-12-04T09:46:47.571Z,1007.99
2018-12-04T09:47:47.562Z,1008.01
2018-12-04T09:48:47.549Z,1008.05
2018-12-04T09:49:47.540Z,1008.04
2018-12-04T09:50:47.541Z,1008.08
2018-12-04T09:51:47.516Z,1008.14
2018-12-04T09:52:47.507Z,1008.16
2018-12-04T09:53:52.051Z,1008.16
2018-12-04T09:54:47.480Z,1008.17
2018-12-04T09:55:47.480Z,1008.18
2018-12-04T09:56:47.459Z,1008.16
2018-12-04T09:57:47.448Z,1008.19
2018-12-04T09:58:47.442Z,1008.21
2018-12-04T09:59:47.423Z,1008.19
2018-12-04T10:00:47.440Z,1008.23
2018-12-04T10:01:47.401Z,1008.23
2018-12-04T10:02:47.391Z,1008.20
2018-12-04T10:03:47.386Z,1008.22
2018-12-04T10:04:47.370Z,1008.24
2018-12-04T10:05:47.354Z,1008.26
2018-12-04T10:06:47.357Z,1008.27
2018-12-04T10:07:47.341Z,1008.29
2018-12-04T10:08:47.320Z,1008.26
2018-12-04T10:09:47.316Z,1008.32
2018-12-04T10:10:47.299Z,1008.28
2018-12-04T10:13:36.754Z,1008.39
2018-12-04T10:13:55.981Z,1008.37
2018-12-04T10:14:55.968Z,1008.39
2018-12-04T10:15:55.990Z,1008.45
2018-12-04T10:18:05.910Z,1008.47
2018-12-04T10:19:04.662Z,1008.44
2018-12-04T10:20:04.649Z,1008.44
2018-12-04T10:21:04.649Z,1008.47
2018-12-04T10:22:04.675Z,1008.47
2018-12-04T10:23:04.617Z,1008.49
2018-12-04T10:24:04.607Z,1008.53
2018-12-04T10:25:04.602Z,1008.50
2018-12-04T10:26:04.596Z,1008.49
2018-12-04T10:27:04.570Z,1008.48
2018-12-04T10:28:04.558Z,1008.46
2018-12-04T10:29:04.572Z,1008.47
2018-12-04T10:30:04.538Z,1008.47
2018-12-04T10:31:04.556Z,1008.46
2018-12-04T10:32:04.522Z,1008.50
2018-12-04T10:33:04.500Z,1008.48
2018-12-04T10:34:04.496Z,1008.48
2018-12-04T10:36:34.203Z,1008.51
2018-12-04T11:57:40.181Z,1009.52
2018-12-04T11:58:40.153Z,1009.59
2018-12-04T11:59:40.136Z,1009.57
2018-12-04T12:02:10.884Z,1009.57
2018-12-04T12:02:48.834Z,1009.54
2018-12-04T12:03:48.820Z,1009.55
2018-12-04T12:04:48.827Z,1009.54
2018-12-04T12:05:48.799Z,1009.57
2018-12-04T12:06:48.787Z,1009.57
2018-12-04T12:07:48.788Z,1009.59
2018-12-04T12:08:48.763Z,1009.60
2018-12-04T12:09:48.751Z,1009.62
2018-12-04T12:10:48.742Z,1009.65
2018-12-04T12:11:48.741Z,1009.67
2018-12-04T12:12:48.728Z,1009.67
2018-12-04T12:13:48.709Z,1009.72
2018-12-04T12:14:48.707Z,1009.73
2018-12-04T12:15:48.687Z,1009.79
2018-12-04T12:16:48.679Z,1009.76
2018-12-04T12:17:48.674Z,1009.76
2018-12-04T12:18:48.656Z,1009.80
2018-12-04T12:19:48.638Z,1009.84
2018-12-04T12:20:48.632Z,1009.82
2018-12-04T12:21:48.618Z,1009.86
2018-12-04T12:22:48.620Z,1009.85
2018-12-04T12:23:48.594Z,1009.88
2018-12-04T12:24:48.583Z,1009.88
2018-12-04T12:25:48.576Z,1009.88
2018-12-04T12:26:48.560Z,1009.87
2018-12-04T12:27:48.571Z,1009.88
2018-12-04T12:28:48.558Z,1009.93
2018-12-04T12:29:48.532Z,1009.89
2018-12-04T12:30:48.513Z,1009.91
2018-12-04T12:31:48.502Z,1009.94
2018-12-04T12:32:48.505Z,1009.95
2018-12-04T12:33:48.484Z,1010.02
2018-12-04T12:34:48.468Z,1009.97
2018-12-04T12:35:48.469Z,1009.97
2018-12-04T12:36:48.449Z,1010.03
2018-12-04T12:37:48.453Z,1010.06
2018-12-04T12:38:48.432Z,1010.07
2018-12-04T12:39:48.414Z,1010.12
2018-12-04T12:40:48.440Z,1010.07
2018-12-04T12:41:48.392Z,1010.09
2018-12-04T12:42:48.400Z,1010.09
2018-12-04T12:43:48.367Z,1010.13
2018-12-04T12:44:48.356Z,1010.15
2018-12-04T12:45:48.351Z,1010.16
2018-12-04T12:46:48.336Z,1010.12
2018-12-04T12:47:48.337Z,1010.13
2018-12-04T12:48:48.310Z,1010.09
2018-12-04T12:49:48.298Z,1010.11
2018-12-04T12:50:48.291Z,1010.11
2018-12-04T12:51:48.290Z,1010.14
2018-12-04T12:52:48.272Z,1010.08
2018-12-04T12:53:48.258Z,1010.12
2018-12-04T12:54:48.250Z,1010.11
2018-12-04T12:55:48.292Z,1010.13
2018-12-04T12:58:01.203Z,1010.14
2018-12-04T12:58:56.940Z,1010.11
2018-12-04T12:59:56.939Z,1010.13
2018-12-04T13:00:56.913Z,1010.10
2018-12-04T13:01:56.903Z,1010.10
2018-12-04T13:02:56.904Z,1010.06
2018-12-04T13:03:56.882Z,1010.07
2018-12-04T13:07:14.080Z,1010.13
2018-12-04T13:08:14.076Z,1010.07
2018-12-04T13:09:14.059Z,1010.06
2018-12-04T13:10:14.053Z,1010.10
2018-12-04T13:12:29.003Z,1010.09
2018-12-04T13:13:22.261Z,1010.14
2018-12-04T13:16:39.199Z,1010.16
2018-12-04T13:17:39.194Z,1010.20
2018-12-04T13:18:39.172Z,1010.22
2018-12-04T13:19:39.160Z,1010.16
2018-12-04T13:20:39.157Z,1010.18
2018-12-04T13:21:39.147Z,1010.21
2018-12-04T13:22:39.141Z,1010.20
2018-12-04T13:23:39.117Z,1010.23
2018-12-04T13:24:39.106Z,1010.25
2018-12-04T13:25:39.101Z,1010.32
2018-12-04T13:26:39.098Z,1010.30
2018-12-04T13:27:39.100Z,1010.37
2018-12-04T13:28:39.082Z,1010.37
2018-12-04T13:29:39.047Z,1010.42
2018-12-04T13:30:39.046Z,1010.38
2018-12-04T13:31:39.035Z,1010.43
2018-12-04T13:32:39.061Z,1010.43
2018-12-04T13:33:39.073Z,1010.48
2018-12-04T13:34:38.998Z,1010.50
2018-12-04T13:35:38.980Z,1010.44
2018-12-04T13:36:38.980Z,1010.49
2018-12-04T13:37:38.970Z,1010.50
2018-12-04T13:40:55.634Z,1010.54
2018-12-04T13:43:39.863Z,1010.57
2018-12-04T13:44:03.610Z,1010.56
2018-12-04T13:45:03.573Z,1010.59
2018-12-04T13:46:03.559Z,1010.62
2018-12-04T13:47:03.565Z,1010.62
2018-12-04T13:48:03.554Z,1010.69
2018-12-04T13:49:03.529Z,1010.63
2018-12-04T13:50:03.564Z,1010.68